Bonanza Express — EHYT — position and weather

sailwx.info

Track history (hours):
 
Tides and Currents Weather Stations Pressure Air Temp Water Temp Dewpoint Dewpoint Depression Visibility Wind Speed Wind Dir Waves Ship Positions

Bonanza Express

Last reported at 2017-Nov-19 21:30 UTC. Time now 2017-Nov-20 06:24 UTC.
Position N 28°02' W 014°41'.

Length 96 m; draft 3.8 m.

Type: High speed craft. MMSI: 224768000.

Date/timePositionNaut miles runAvg speedWind from/ knotsBaromVisibWave heightAir tempDewpointWater temp
2017-Nov-19 21:30N 28°02' W 014°41'1530.1
2017-Nov-19 21:00N 28°04' W 014°58'1529.9
2017-Nov-19 20:30N 28°06' W 015°15'1019.0
2017-Nov-19 20:00N 28°09' W 015°25'0 0.0
2017-Nov-19 19:30N 28°09' W 015°25'5 9.1
2017-Nov-19 19:00N 28°07' W 015°21'1734.5
2017-Nov-19 18:30N 28°05' W 015°01'20 8.6
2017-Nov-19 16:13N 28°02' W 014°39'935.4
2017-Nov-19 15:58N 28°04' W 014°49'1635.3
2017-Nov-19 15:30N 28°05' W 015°07'1631.2
2017-Nov-19 15:01N 28°08' W 015°25'1 2.5
2017-Nov-19 14:30N 28°09' W 015°25'5 9.4
2017-Nov-19 14:00N 28°07' W 015°21'1835.0
2017-Nov-19 13:30N 28°05' W 015°01'20 1.2
2017-Nov-18 21:33N 28°02' W 014°38'232.4
2017-Nov-18 21:30N 28°02' W 014°40'1733.5
2017-Nov-18 21:00N 28°04' W 014°59'1733.4
2017-Nov-18 20:30N 28°06' W 015°18'713.5
2017-Nov-18 20:00N 28°09' W 015°25'0 0.0
2017-Nov-18 19:30N 28°09' W 015°25'0 0.0
2017-Nov-18 19:00N 28°09' W 015°25'0 0.0
2017-Nov-18 18:30N 28°09' W 015°25'611.4
2017-Nov-18 18:00N 28°06' W 015°19'1734.9
2017-Nov-18 17:30N 28°05' W 014°60'19 3.1
2017-Nov-18 11:22N 28°02' W 014°38'1234.6
2017-Nov-18 11:01N 28°03' W 014°52'1734.4
2017-Nov-18 10:30N 28°06' W 015°11'1324.7
2017-Nov-18 09:59N 28°09' W 015°25'0 0.0
2017-Nov-18 09:31N 28°09' W 015°25'917.7
2017-Nov-18 09:00N 28°06' W 015°16'1734.4
2017-Nov-18 08:30N 28°05' W 014°56'6 0.6
2017-Nov-17 21:21N 28°03' W 014°49'1029.0
2017-Nov-17 21:00N 28°04' W 015°01'1428.8
2017-Nov-17 20:30N 28°06' W 015°17'816.3
2017-Nov-17 20:00N 28°09' W 015°25'0 0.0
2017-Nov-17 19:30N 28°09' W 015°25'0 0.0
2017-Nov-17 19:00N 28°09' W 015°25'2 3.3
2017-Nov-17 18:30N 28°07' W 015°25'1631.3
2017-Nov-17 18:01N 28°05' W 015°07'1632.0
2017-Nov-17 17:31N 28°03' W 014°49'8 1.1
2017-Nov-17 10:39N 28°02' W 014°40'531.7
2017-Nov-17 10:30N 28°03' W 014°45'1631.1
2017-Nov-17 10:00N 28°04' W 015°03'1631.1
2017-Nov-17 09:30N 28°06' W 015°20'510.2
2017-Nov-17 09:00N 28°09' W 015°25'0 0.2
2017-Nov-17 08:30N 28°09' W 015°25'1019.2
2017-Nov-17 08:00N 28°06' W 015°15'1835.1
2017-Nov-17 07:30N 28°04' W 014°55'12 1.3
2017-Nov-16 21:44N 28°02' W 014°41'728.7
2017-Nov-16 21:30N 28°03' W 014°49'1428.8
2017-Nov-16 21:00N 28°05' W 015°05'1428.5
2017-Nov-16 20:31N 28°06' W 015°21'4 8.9
2017-Nov-16 20:00N 28°09' W 015°25'0 0.0
2017-Nov-16 19:30N 28°09' W 015°25'0 0.0
2017-Nov-16 19:00N 28°09' W 015°25'0 0.7
2017-Nov-16 18:30N 28°08' W 015°25'1223.9
2017-Nov-16 18:00N 28°06' W 015°12'1632.6
2017-Nov-16 17:30N 28°04' W 014°54'13 1.8
2017-Nov-16 10:32N 28°03' W 014°39'232.2
2017-Nov-16 10:29N 28°03' W 014°41'1632.3
2017-Nov-16 10:00N 28°05' W 014°59'1632.0
2017-Nov-16 09:31N 28°06' W 015°17'815.7
2017-Nov-16 09:00N 28°09' W 015°25'0 0.5
2017-Nov-16 08:30N 28°09' W 015°25'1121.4
2017-Nov-16 08:00N 28°05' W 015°14'1733.8
2017-Nov-16 07:30N 28°04' W 014°55'16 1.7
2017-Nov-15 21:48N 28°03' W 014°36'828.1
2017-Nov-15 21:31N 28°03' W 014°45'1428.1
2017-Nov-15 21:01N 28°05' W 015°01'1428.0
2017-Nov-15 20:30N 28°06' W 015°17'815.2
2017-Nov-15 20:00N 28°09' W 015°25'0 0.0
2017-Nov-15 19:31N 28°09' W 015°25'0 0.0
2017-Nov-15 19:01N 28°09' W 015°25'0 0.5
2017-Nov-15 18:30N 28°09' W 015°25'1121.8
2017-Nov-15 18:01N 28°06' W 015°13'1632.0
2017-Nov-15 17:31N 28°04' W 014°55'16 2.3
2017-Nov-15 10:35N 28°02' W 014°38'330.6
2017-Nov-15 10:30N 28°03' W 014°41'1530.7
2017-Nov-15 10:00N 28°04' W 014°58'1530.7
2017-Nov-15 09:30N 28°06' W 015°15'1019.0
2017-Nov-15 09:00N 28°09' W 015°25'0 0.0
2017-Nov-15 08:30N 28°09' W 015°25'917.6
2017-Nov-15 08:00N 28°06' W 015°16'1632.6
2017-Nov-15 07:30N 28°04' W 014°58'15 1.5
2017-Nov-14 21:43N 27°60' W 014°41'627.3
2017-Nov-14 21:31N 28°01' W 014°48'1427.6
2017-Nov-14 21:01N 28°05' W 015°03'1427.6
2017-Nov-14 20:31N 28°07' W 015°18'713.0
2017-Nov-14 20:00N 28°09' W 015°25'0 0.0
2017-Nov-14 19:30N 28°09' W 015°25'0 0.0
2017-Nov-14 19:00N 28°09' W 015°25'0 0.7
2017-Nov-14 18:30N 28°08' W 015°25'1122.6
2017-Nov-14 18:01N 28°06' W 015°13'1631.5
2017-Nov-14 17:31N 28°04' W 014°55'17 2.5
2017-Nov-14 10:37N 28°01' W 014°36'430.1
2017-Nov-14 10:30N 28°01' W 014°40'1530.4
2017-Nov-14 10:01N 28°03' W 014°57'1530.1
2017-Nov-14 09:31N 28°05' W 015°14'1121.0
2017-Nov-14 09:00N 28°09' W 015°25'0 0.0
2017-Nov-14 08:30N 28°09' W 015°25'815.7
2017-Nov-14 08:00N 28°06' W 015°17'1733.9
2017-Nov-14 07:31N 28°04' W 014°58'1733.5
2017-Nov-14 07:00N 28°02' W 014°39'0 0.0
2017-Nov-13 21:59N 28°02' W 014°39'15 0.7
2017-Nov-12 23:09N 28°03' W 014°22'0 0.0
2017-Nov-12 23:00N 28°03' W 014°22'0 0.0
2017-Nov-12 22:27N 28°03' W 014°22'1123.8
2017-Nov-12 22:00N 28°02' W 014°34'1632.3
2017-Nov-12 21:31N 28°04' W 014°52'1631.7
2017-Nov-12 21:01N 28°06' W 015°10'1426.8
2017-Nov-12 20:30N 28°08' W 015°25'1 1.7
2017-Nov-12 20:00N 28°09' W 015°25'2 3.7
2017-Nov-12 19:30N 28°07' W 015°24'1631.0
2017-Nov-12 19:00N 28°06' W 015°07'1734.0
2017-Nov-12 18:31N 28°03' W 014°48'17 9.5
2017-Nov-12 16:41N 28°03' W 014°28'530.1
2017-Nov-12 16:31N 28°03' W 014°34'1631.3
2017-Nov-12 16:01N 28°04' W 014°52'1631.5
2017-Nov-12 15:31N 28°05' W 015°10'1427.4
2017-Nov-12 15:00N 28°08' W 015°25'1 1.8
2017-Nov-12 14:30N 28°09' W 015°25'4 9.1
2017-Nov-12 14:00N 28°07' W 015°21'1835.5
2017-Nov-12 13:30N 28°05' W 015°01'1835.7
2017-Nov-12 13:00N 28°03' W 014°40'1632.3
2017-Nov-12 12:30N 28°03' W 014°22'0 0.6
2017-Nov-12 12:00N 28°03' W 014°22'0 0.0
2017-Nov-12 11:30N 28°03' W 014°22'0 0.0
2017-Nov-12 10:57N 28°03' W 014°22'0 0.0
2017-Nov-12 10:30N 28°03' W 014°22'0 0.0
2017-Nov-12 10:00N 28°03' W 014°22'0 0.0
2017-Nov-12 09:30N 28°03' W 014°22'0 0.0
2017-Nov-12 08:58N 28°03' W 014°22'0 0.0
2017-Nov-12 08:24N 28°03' W 014°22'0 0.0
2017-Nov-12 05:42N 28°03' W 014°22'0 0.0
2017-Nov-12 05:28N 28°03' W 014°22'0 0.0
2017-Nov-12 03:51N 28°03' W 014°22'0 0.0
2017-Nov-12 03:27N 28°03' W 014°22'0 0.0
2017-Nov-12 03:00N 28°03' W 014°22'0 0.0
2017-Nov-12 02:30N 28°03' W 014°22'0 0.0
2017-Nov-12 02:00N 28°03' W 014°22'0 0.0
2017-Nov-12 01:30N 28°03' W 014°22'0 0.0
2017-Nov-12 01:00N 28°03' W 014°22'0 0.0
2017-Nov-11 23:32N 28°03' W 014°22'0 0.2
2017-Nov-11 23:30N 28°03' W 014°22'0 0.0
2017-Nov-11 23:00N 28°03' W 014°22'0 0.0
2017-Nov-11 22:30N 28°03' W 014°22'0 0.0
2017-Nov-11 22:00N 28°03' W 014°22'1428.2
2017-Nov-11 21:31N 28°01' W 014°37'1733.0
2017-Nov-11 21:00N 28°02' W 014°56'1632.7
2017-Nov-11 20:31N 28°05' W 015°14'1020.6
2017-Nov-11 20:00N 28°09' W 015°25'0 0.0
2017-Nov-11 19:30N 28°09' W 015°25'0 0.0
2017-Nov-11 19:00N 28°09' W 015°25'0 0.0
2017-Nov-11 18:30N 28°09' W 015°25'612.4
2017-Nov-11 18:01N 28°06' W 015°19'1834.6
2017-Nov-11 17:30N 28°04' W 014°59'1734.6
2017-Nov-11 17:00N 28°03' W 014°39'1626.5
2017-Nov-11 16:24N 28°03' W 014°22'0 0.0
2017-Nov-11 16:00N 28°03' W 014°22'0 0.0
2017-Nov-11 15:29N 28°03' W 014°22'0 0.0
2017-Nov-11 14:59N 28°03' W 014°22'0 0.0
2017-Nov-11 14:21N 28°03' W 014°22'0 0.0
2017-Nov-11 14:00N 28°03' W 014°22'0 0.0
2017-Nov-11 13:29N 28°03' W 014°22'0 0.0
2017-Nov-11 12:58N 28°03' W 014°22'0 0.0
2017-Nov-11 12:30N 28°03' W 014°22'0 0.6
2017-Nov-11 11:58N 28°03' W 014°22'1431.3
2017-Nov-11 11:31N 28°02' W 014°38'1734.2
2017-Nov-11 11:01N 28°04' W 014°58'1733.6
2017-Nov-11 10:30N 28°05' W 015°17'816.6
2017-Nov-11 10:00N 28°09' W 015°25'2 4.7
2017-Nov-11 09:30N 28°07' W 015°24'1530.7
2017-Nov-11 09:00N 28°06' W 015°06'1631.4
2017-Nov-11 08:30N 28°03' W 014°49'1530.3
2017-Nov-11 08:01N 28°02' W 014°32'9 1.6
2017-Nov-11 02:26N 28°03' W 014°22'0 0.0
2017-Nov-11 01:55N 28°03' W 014°22'11 2.7
2017-Nov-10 21:57N 27°58' W 014°33'1328.5
2017-Nov-10 21:30N 28°00' W 014°47'1428.7
2017-Nov-10 21:00N 28°02' W 015°03'1428.0
2017-Nov-10 20:31N 28°06' W 015°18'714.2
2017-Nov-10 20:00N 28°09' W 015°25'0 0.0
2017-Nov-10 19:30N 28°09' W 015°25'0 0.0
2017-Nov-10 19:00N 28°09' W 015°25'0 0.3
2017-Nov-10 18:30N 28°09' W 015°25'1019.3
2017-Nov-10 18:00N 28°05' W 015°15'1632.6
2017-Nov-10 17:30N 28°02' W 014°57'1632.4
2017-Nov-10 17:00N 28°02' W 014°39'15 6.7
2017-Nov-10 14:45N 28°03' W 014°22'21 5.1
2017-Nov-10 10:39N 27°56' W 014°44'430.3
2017-Nov-10 10:30N 27°57' W 014°48'1530.5
2017-Nov-10 10:01N 28°02' W 015°04'1530.2
2017-Nov-10 09:31N 28°06' W 015°21'5 9.3
2017-Nov-10 09:00N 28°09' W 015°25'1 2.4
2017-Nov-10 08:30N 28°08' W 015°25'1326.1
2017-Nov-10 08:01N 28°04' W 015°11'1530.8
2017-Nov-10 07:30N 28°03' W 014°54'2811.3
2017-Nov-10 05:00N 28°03' W 014°22'13 1.7
2017-Nov-09 21:47N 27°59' W 014°35'829.9
2017-Nov-09 21:30N 27°59' W 014°44'  
Track history (hours):
 
Tides and Currents Weather Stations Pressure Air Temp Water Temp Dewpoint Dewpoint Depression Visibility Wind Speed Wind Dir Waves Ship Positions

Bonanza Express

Last reported at 2017-Nov-19 21:30 UTC. Time now 2017-Nov-20 06:24 UTC.
Position N 28°02' W 014°41'.

Length 96 m; draft 3.8 m.

Type: High speed craft. MMSI: 224768000.

Date/timePositionNaut miles runAvg speedWind from/ knotsBaromVisibWave heightAir tempDewpointWater temp
2017-Nov-19 21:30N 28°02' W 014°41'1530.1
2017-Nov-19 21:00N 28°04' W 014°58'1529.9
2017-Nov-19 20:30N 28°06' W 015°15'1019.0
2017-Nov-19 20:00N 28°09' W 015°25'0 0.0
2017-Nov-19 19:30N 28°09' W 015°25'5 9.1
2017-Nov-19 19:00N 28°07' W 015°21'1734.5
2017-Nov-19 18:30N 28°05' W 015°01'20 8.6
2017-Nov-19 16:13N 28°02' W 014°39'935.4
2017-Nov-19 15:58N 28°04' W 014°49'1635.3
2017-Nov-19 15:30N 28°05' W 015°07'1631.2
2017-Nov-19 15:01N 28°08' W 015°25'1 2.5
2017-Nov-19 14:30N 28°09' W 015°25'5 9.4
2017-Nov-19 14:00N 28°07' W 015°21'1835.0
2017-Nov-19 13:30N 28°05' W 015°01'20 1.2
2017-Nov-18 21:33N 28°02' W 014°38'232.4
2017-Nov-18 21:30N 28°02' W 014°40'1733.5
2017-Nov-18 21:00N 28°04' W 014°59'1733.4
2017-Nov-18 20:30N 28°06' W 015°18'713.5
2017-Nov-18 20:00N 28°09' W 015°25'0 0.0
2017-Nov-18 19:30N 28°09' W 015°25'0 0.0
2017-Nov-18 19:00N 28°09' W 015°25'0 0.0
2017-Nov-18 18:30N 28°09' W 015°25'611.4
2017-Nov-18 18:00N 28°06' W 015°19'1734.9
2017-Nov-18 17:30N 28°05' W 014°60'19 3.1
2017-Nov-18 11:22N 28°02' W 014°38'1234.6
2017-Nov-18 11:01N 28°03' W 014°52'1734.4
2017-Nov-18 10:30N 28°06' W 015°11'1324.7
2017-Nov-18 09:59N 28°09' W 015°25'0 0.0
2017-Nov-18 09:31N 28°09' W 015°25'917.7
2017-Nov-18 09:00N 28°06' W 015°16'1734.4
2017-Nov-18 08:30N 28°05' W 014°56'6 0.6
2017-Nov-17 21:21N 28°03' W 014°49'1029.0
2017-Nov-17 21:00N 28°04' W 015°01'1428.8
2017-Nov-17 20:30N 28°06' W 015°17'816.3
2017-Nov-17 20:00N 28°09' W 015°25'0 0.0
2017-Nov-17 19:30N 28°09' W 015°25'0 0.0
2017-Nov-17 19:00N 28°09' W 015°25'2 3.3
2017-Nov-17 18:30N 28°07' W 015°25'1631.3
2017-Nov-17 18:01N 28°05' W 015°07'1632.0
2017-Nov-17 17:31N 28°03' W 014°49'8 1.1
2017-Nov-17 10:39N 28°02' W 014°40'531.7
2017-Nov-17 10:30N 28°03' W 014°45'1631.1
2017-Nov-17 10:00N 28°04' W 015°03'1631.1
2017-Nov-17 09:30N 28°06' W 015°20'510.2
2017-Nov-17 09:00N 28°09' W 015°25'0 0.2
2017-Nov-17 08:30N 28°09' W 015°25'1019.2
2017-Nov-17 08:00N 28°06' W 015°15'1835.1
2017-Nov-17 07:30N 28°04' W 014°55'12 1.3
2017-Nov-16 21:44N 28°02' W 014°41'728.7
2017-Nov-16 21:30N 28°03' W 014°49'1428.8
2017-Nov-16 21:00N 28°05' W 015°05'1428.5
2017-Nov-16 20:31N 28°06' W 015°21'4 8.9
2017-Nov-16 20:00N 28°09' W 015°25'0 0.0
2017-Nov-16 19:30N 28°09' W 015°25'0 0.0
2017-Nov-16 19:00N 28°09' W 015°25'0 0.7
2017-Nov-16 18:30N 28°08' W 015°25'1223.9
2017-Nov-16 18:00N 28°06' W 015°12'1632.6
2017-Nov-16 17:30N 28°04' W 014°54'13 1.8
2017-Nov-16 10:32N 28°03' W 014°39'232.2
2017-Nov-16 10:29N 28°03' W 014°41'1632.3
2017-Nov-16 10:00N 28°05' W 014°59'1632.0
2017-Nov-16 09:31N 28°06' W 015°17'815.7
2017-Nov-16 09:00N 28°09' W 015°25'0 0.5
2017-Nov-16 08:30N 28°09' W 015°25'1121.4
2017-Nov-16 08:00N 28°05' W 015°14'1733.8
2017-Nov-16 07:30N 28°04' W 014°55'16 1.7
2017-Nov-15 21:48N 28°03' W 014°36'828.1
2017-Nov-15 21:31N 28°03' W 014°45'1428.1
2017-Nov-15 21:01N 28°05' W 015°01'1428.0
2017-Nov-15 20:30N 28°06' W 015°17'815.2
2017-Nov-15 20:00N 28°09' W 015°25'0 0.0
2017-Nov-15 19:31N 28°09' W 015°25'0 0.0
2017-Nov-15 19:01N 28°09' W 015°25'0 0.5
2017-Nov-15 18:30N 28°09' W 015°25'1121.8
2017-Nov-15 18:01N 28°06' W 015°13'1632.0
2017-Nov-15 17:31N 28°04' W 014°55'16 2.3
2017-Nov-15 10:35N 28°02' W 014°38'330.6
2017-Nov-15 10:30N 28°03' W 014°41'1530.7
2017-Nov-15 10:00N 28°04' W 014°58'1530.7
2017-Nov-15 09:30N 28°06' W 015°15'1019.0
2017-Nov-15 09:00N 28°09' W 015°25'0 0.0
2017-Nov-15 08:30N 28°09' W 015°25'917.6
2017-Nov-15 08:00N 28°06' W 015°16'1632.6
2017-Nov-15 07:30N 28°04' W 014°58'15 1.5
2017-Nov-14 21:43N 27°60' W 014°41'627.3
2017-Nov-14 21:31N 28°01' W 014°48'1427.6
2017-Nov-14 21:01N 28°05' W 015°03'1427.6
2017-Nov-14 20:31N 28°07' W 015°18'713.0
2017-Nov-14 20:00N 28°09' W 015°25'0 0.0
2017-Nov-14 19:30N 28°09' W 015°25'0 0.0
2017-Nov-14 19:00N 28°09' W 015°25'0 0.7
2017-Nov-14 18:30N 28°08' W 015°25'1122.6
2017-Nov-14 18:01N 28°06' W 015°13'1631.5
2017-Nov-14 17:31N 28°04' W 014°55'17 2.5
2017-Nov-14 10:37N 28°01' W 014°36'430.1
2017-Nov-14 10:30N 28°01' W 014°40'1530.4
2017-Nov-14 10:01N 28°03' W 014°57'1530.1
2017-Nov-14 09:31N 28°05' W 015°14'1121.0
2017-Nov-14 09:00N 28°09' W 015°25'0 0.0
2017-Nov-14 08:30N 28°09' W 015°25'815.7
2017-Nov-14 08:00N 28°06' W 015°17'1733.9
2017-Nov-14 07:31N 28°04' W 014°58'1733.5
2017-Nov-14 07:00N 28°02' W 014°39'0 0.0
2017-Nov-13 21:59N 28°02' W 014°39'15 0.7
2017-Nov-12 23:09N 28°03' W 014°22'0 0.0
2017-Nov-12 23:00N 28°03' W 014°22'0 0.0
2017-Nov-12 22:27N 28°03' W 014°22'1123.8
2017-Nov-12 22:00N 28°02' W 014°34'1632.3
2017-Nov-12 21:31N 28°04' W 014°52'1631.7
2017-Nov-12 21:01N 28°06' W 015°10'1426.8
2017-Nov-12 20:30N 28°08' W 015°25'1 1.7
2017-Nov-12 20:00N 28°09' W 015°25'2 3.7
2017-Nov-12 19:30N 28°07' W 015°24'1631.0
2017-Nov-12 19:00N 28°06' W 015°07'1734.0
2017-Nov-12 18:31N 28°03' W 014°48'17 9.5
2017-Nov-12 16:41N 28°03' W 014°28'530.1
2017-Nov-12 16:31N 28°03' W 014°34'1631.3
2017-Nov-12 16:01N 28°04' W 014°52'1631.5
2017-Nov-12 15:31N 28°05' W 015°10'1427.4
2017-Nov-12 15:00N 28°08' W 015°25'1 1.8
2017-Nov-12 14:30N 28°09' W 015°25'4 9.1
2017-Nov-12 14:00N 28°07' W 015°21'1835.5
2017-Nov-12 13:30N 28°05' W 015°01'1835.7
2017-Nov-12 13:00N 28°03' W 014°40'1632.3
2017-Nov-12 12:30N 28°03' W 014°22'0 0.6
2017-Nov-12 12:00N 28°03' W 014°22'0 0.0
2017-Nov-12 11:30N 28°03' W 014°22'0 0.0
2017-Nov-12 10:57N 28°03' W 014°22'0 0.0
2017-Nov-12 10:30N 28°03' W 014°22'0 0.0
2017-Nov-12 10:00N 28°03' W 014°22'0 0.0
2017-Nov-12 09:30N 28°03' W 014°22'0 0.0
2017-Nov-12 08:58N 28°03' W 014°22'0 0.0
2017-Nov-12 08:24N 28°03' W 014°22'0 0.0
2017-Nov-12 05:42N 28°03' W 014°22'0 0.0
2017-Nov-12 05:28N 28°03' W 014°22'0 0.0
2017-Nov-12 03:51N 28°03' W 014°22'0 0.0
2017-Nov-12 03:27N 28°03' W 014°22'0 0.0
2017-Nov-12 03:00N 28°03' W 014°22'0 0.0
2017-Nov-12 02:30N 28°03' W 014°22'0 0.0
2017-Nov-12 02:00N 28°03' W 014°22'0 0.0
2017-Nov-12 01:30N 28°03' W 014°22'0 0.0
2017-Nov-12 01:00N 28°03' W 014°22'0 0.0
2017-Nov-11 23:32N 28°03' W 014°22'0 0.2
2017-Nov-11 23:30N 28°03' W 014°22'0 0.0
2017-Nov-11 23:00N 28°03' W 014°22'0 0.0
2017-Nov-11 22:30N 28°03' W 014°22'0 0.0
2017-Nov-11 22:00N 28°03' W 014°22'1428.2
2017-Nov-11 21:31N 28°01' W 014°37'1733.0
2017-Nov-11 21:00N 28°02' W 014°56'1632.7
2017-Nov-11 20:31N 28°05' W 015°14'1020.6
2017-Nov-11 20:00N 28°09' W 015°25'0 0.0
2017-Nov-11 19:30N 28°09' W 015°25'0 0.0
2017-Nov-11 19:00N 28°09' W 015°25'0 0.0
2017-Nov-11 18:30N 28°09' W 015°25'612.4
2017-Nov-11 18:01N 28°06' W 015°19'1834.6
2017-Nov-11 17:30N 28°04' W 014°59'1734.6
2017-Nov-11 17:00N 28°03' W 014°39'1626.5
2017-Nov-11 16:24N 28°03' W 014°22'0 0.0
2017-Nov-11 16:00N 28°03' W 014°22'0 0.0
2017-Nov-11 15:29N 28°03' W 014°22'0 0.0
2017-Nov-11 14:59N 28°03' W 014°22'0 0.0
2017-Nov-11 14:21N 28°03' W 014°22'0 0.0
2017-Nov-11 14:00N 28°03' W 014°22'0 0.0
2017-Nov-11 13:29N 28°03' W 014°22'0 0.0
2017-Nov-11 12:58N 28°03' W 014°22'0 0.0
2017-Nov-11 12:30N 28°03' W 014°22'0 0.6
2017-Nov-11 11:58N 28°03' W 014°22'1431.3
2017-Nov-11 11:31N 28°02' W 014°38'1734.2
2017-Nov-11 11:01N 28°04' W 014°58'1733.6
2017-Nov-11 10:30N 28°05' W 015°17'816.6
2017-Nov-11 10:00N 28°09' W 015°25'2 4.7
2017-Nov-11 09:30N 28°07' W 015°24'1530.7
2017-Nov-11 09:00N 28°06' W 015°06'1631.4
2017-Nov-11 08:30N 28°03' W 014°49'1530.3
2017-Nov-11 08:01N 28°02' W 014°32'9 1.6
2017-Nov-11 02:26N 28°03' W 014°22'0 0.0
2017-Nov-11 01:55N 28°03' W 014°22'11 2.7
2017-Nov-10 21:57N 27°58' W 014°33'1328.5
2017-Nov-10 21:30N 28°00' W 014°47'1428.7
2017-Nov-10 21:00N 28°02' W 015°03'1428.0
2017-Nov-10 20:31N 28°06' W 015°18'714.2
2017-Nov-10 20:00N 28°09' W 015°25'0 0.0
2017-Nov-10 19:30N 28°09' W 015°25'0 0.0
2017-Nov-10 19:00N 28°09' W 015°25'0 0.3
2017-Nov-10 18:30N 28°09' W 015°25'1019.3
2017-Nov-10 18:00N 28°05' W 015°15'1632.6
2017-Nov-10 17:30N 28°02' W 014°57'1632.4
2017-Nov-10 17:00N 28°02' W 014°39'15 6.7
2017-Nov-10 14:45N 28°03' W 014°22'21 5.1
2017-Nov-10 10:39N 27°56' W 014°44'430.3
2017-Nov-10 10:30N 27°57' W 014°48'1530.5
2017-Nov-10 10:01N 28°02' W 015°04'1530.2
2017-Nov-10 09:31N 28°06' W 015°21'5 9.3
2017-Nov-10 09:00N 28°09' W 015°25'1 2.4
2017-Nov-10 08:30N 28°08' W 015°25'1326.1
2017-Nov-10 08:01N 28°04' W 015°11'1530.8
2017-Nov-10 07:30N 28°03' W 014°54'2811.3
2017-Nov-10 05:00N 28°03' W 014°22'13 1.7
2017-Nov-09 21:47N 27°59' W 014°35'829.9
2017-Nov-09 21:30N 27°59' W 014°44'  

Dump ship's entire track history